Latest Weather Observations for Busselton Jetty

IDW60801

Issued at 5:02 pm WST Saturday 29 August 2015 (issued every 30 minutes, with the page automatically refreshed every 10 minutes)

About weather observations | Map of weather stations | Latest weather observations for WA | Other Formats
Station Details ID: 009937 Name: BUSSELTON JETTY Lat: -33.63 Lon: 115.34 Height: 3.0 m
Data from the previous 72 hours. | See also: Recent months at Busselton Jetty
Date/Time
WST
Temp
°C
App
Temp
°C
Dew
Point
Rel
Hum
%
Delta-T
°C
Wind Press
QNH
hPa
Press
MSL
hPa
Rain
since 9 am
mm
Dir
 
Spd
km/h
Gust
km/h
Spd
kts
Gust
kts
29/05:00pm - - - - - NW 20 26 11 14 - - -
29/04:30pm - - - - - WNW 28 32 15 17 - - -
29/04:00pm - - - - - WNW 24 28 13 15 - - -
29/03:30pm - - - - - WNW 28 33 15 18 - - -
29/03:00pm - - - - - NW 32 37 17 20 - - -
29/02:30pm - - - - - WNW 33 39 18 21 - - -
29/02:00pm - - - - - WNW 32 39 17 21 - - -
29/01:30pm - - - - - WNW 35 43 19 23 - - -
29/01:00pm - - - - - NNW 48 63 26 34 - - -
29/12:47pm - - - - - NW 48 59 26 32 - - -
29/12:36pm - - - - - N 65 80 35 43 - - -
29/12:30pm - - - - - N 61 80 33 43 - - -
29/12:00pm - - - - - NNE 48 70 26 38 - - -
29/11:55am - - - - - NE 46 70 25 38 - - -
29/11:45am - - - - - NNE 32 61 17 33 - - -
29/11:30am - - - - - NNE 44 59 24 32 - - -
29/11:12am - - - - - NNE 48 67 26 36 - - -
29/11:00am - - - - - NE 44 54 24 29 - - -
29/10:36am - - - - - NE 33 52 18 28 - - -
29/10:30am - - - - - NE 32 39 17 21 - - -
29/10:00am - - - - - NNE 22 28 12 15 - - -
29/09:30am - - - - - N 33 37 18 20 - - -
29/09:00am - - - - - NNE 32 37 17 20 - - -
29/08:30am - - - - - NNE 28 32 15 17 - - -
29/08:00am - - - - - NNE 30 33 16 18 - - -
29/07:30am - - - - - NNE 26 30 14 16 - - -
29/07:00am - - - - - NNE 20 24 11 13 - - -
29/06:30am - - - - - N 19 20 10 11 - - -
29/06:00am - - - - - N 17 19 9 10 - - -
29/05:30am - - - - - N 19 22 10 12 - - -
29/05:00am - - - - - N 22 26 12 14 - - -
29/04:30am - - - - - N 26 30 14 16 - - -
29/04:00am - - - - - N 26 28 14 15 - - -
29/03:30am - - - - - N 24 26 13 14 - - -
29/03:00am - - - - - N 20 26 11 14 - - -
29/02:30am - - - - - ENE 17 22 9 12 - - -
29/02:00am - - - - - ENE 22 28 12 15 - - -
29/01:30am - - - - - ENE 19 22 10 12 - - -
29/01:00am - - - - - ENE 20 24 11 13 - - -
29/12:30am - - - - - ENE 20 26 11 14 - - -
29/12:00am - - - - - ENE 19 20 10 11 - - -
 
Date/Time
WST
Temp
°C
App
Temp
°C
Dew
Point
Rel
Hum
%
Delta-T
°C
Wind Press
QNH
hPa
Press
MSL
hPa
Rain
since 9 am
mm
Dir
 
Spd
km/h
Gust
km/h
Spd
kts
Gust
kts
28/11:30pm - - - - - ENE 20 26 11 14 - - -
28/11:00pm - - - - - ENE 19 20 10 11 - - -
28/10:30pm - - - - - ENE 17 19 9 10 - - -
28/10:00pm - - - - - NE 11 15 6 8 - - -
28/09:30pm - - - - - NE 11 13 6 7 - - -
28/09:00pm - - - - - NE 9 11 5 6 - - -
28/08:30pm - - - - - NNE 9 9 5 5 - - -
28/08:00pm - - - - - NNE 7 9 4 5 - - -
28/07:30pm - - - - - NNE 6 7 3 4 - - -
28/07:00pm - - - - - NNW 11 13 6 7 - - -
28/06:30pm - - - - - N 13 15 7 8 - - -
28/06:00pm - - - - - N 11 11 6 6 - - -
28/05:30pm - - - - - N 13 15 7 8 - - -
28/05:00pm - - - - - N 15 17 8 9 - - -
28/04:30pm - - - - - N 17 19 9 10 - - -
28/04:00pm - - - - - N 19 20 10 11 - - -
28/03:30pm - - - - - NNW 19 20 10 11 - - -
28/03:00pm - - - - - NNW 17 19 9 10 - - -
28/02:30pm - - - - - NNW 19 22 10 12 - - -
28/02:00pm - - - - - NNW 19 24 10 13 - - -
28/01:30pm - - - - - NNW 22 26 12 14 - - -
28/01:00pm - - - - - NNW 22 28 12 15 - - -
28/12:30pm - - - - - NNW 20 24 11 13 - - -
28/12:00pm - - - - - NNW 22 26 12 14 - - -
28/11:30am - - - - - NNW 22 28 12 15 - - -
28/11:00am - - - - - NW 19 20 10 11 - - -
28/10:30am - - - - - NNW 15 17 8 9 - - -
28/10:00am - - - - - NW 17 19 9 10 - - -
28/09:30am - - - - - NNW 17 19 9 10 - - -
28/09:00am - - - - - NNW 13 15 7 8 - - -
28/08:30am - - - - - NNW 15 17 8 9 - - -
28/08:00am - - - - - NW 15 17 8 9 - - -
28/07:30am - - - - - NW 15 17 8 9 - - -
28/07:00am - - - - - NW 17 19 9 10 - - -
28/06:30am - - - - - NNW 20 22 11 12 - - -
28/06:00am - - - - - NNW 19 22 10 12 - - -
28/05:30am - - - - - N 20 24 11 13 - - -
28/05:00am - - - - - NNE 20 26 11 14 - - -
28/04:30am - - - - - NNE 17 19 9 10 - - -
28/04:00am - - - - - N 17 19 9 10 - - -
28/03:30am - - - - - N 17 17 9 9 - - -
28/03:00am - - - - - N 19 22 10 12 - - -
28/02:30am - - - - - N 20 24 11 13 - - -
28/02:00am - - - - - N 17 19 9 10 - - -
28/01:30am - - - - - NNE 19 20 10 11 - - -
28/01:00am - - - - - NNE 19 20 10 11 - - -
28/12:30am - - - - - NE 19 20 10 11 - - -
28/12:00am - - - - - NE 24 26 13 14 - - -
 
Date/Time
WST
Temp
°C
App
Temp
°C
Dew
Point
Rel
Hum
%
Delta-T
°C
Wind Press
QNH
hPa
Press
MSL
hPa
Rain
since 9 am
mm
Dir
 
Spd
km/h
Gust
km/h
Spd
kts
Gust
kts
27/11:30pm - - - - - NE 24 28 13 15 - - -
27/11:00pm - - - - - ENE 22 26 12 14 - - -
27/10:30pm - - - - - E 20 24 11 13 - - -
27/10:00pm - - - - - ESE 19 22 10 12 - - -
27/09:30pm - - - - - ESE 17 19 9 10 - - -
27/09:00pm - - - - - ESE 19 20 10 11 - - -
27/08:30pm - - - - - ESE 22 24 12 13 - - -
27/08:00pm - - - - - SE 15 17 8 9 - - -
27/07:30pm - - - - - SSE 13 15 7 8 - - -
27/07:00pm - - - - - SSE 15 15 8 8 - - -
27/06:30pm - - - - - S 13 13 7 7 - - -
27/06:00pm - - - - - S 11 11 6 6 - - -
27/05:30pm - - - - - SSE 11 13 6 7 - - -
27/05:00pm - - - - - SE 17 19 9 10 - - -
27/04:30pm - - - - - SSE 9 13 5 7 - - -
27/04:00pm - - - - - ESE 9 11 5 6 - - -
27/03:30pm - - - - - ESE 6 7 3 4 - - -
27/03:00pm - - - - - E 9 9 5 5 - - -
27/02:30pm - - - - - ESE 7 7 4 4 - - -
27/02:00pm - - - - - ESE 6 7 3 4 - - -
27/01:30pm - - - - - ENE 2 6 1 3 - - -
27/01:00pm - - - - - NE 6 7 3 4 - - -
27/12:30pm - - - - - ENE 7 9 4 5 - - -
27/12:00pm - - - - - ENE 7 11 4 6 - - -
27/11:30am - - - - - ENE 11 11 6 6 - - -
27/11:00am - - - - - ENE 11 11 6 6 - - -
27/10:30am - - - - - E 13 15 7 8 - - -
27/10:00am - - - - - E 13 15 7 8 - - -
27/09:30am - - - - - ESE 15 17 8 9 - - -
27/09:00am - - - - - SE 15 17 8 9 - - -
27/08:30am - - - - - SE 15 19 8 10 - - -
27/08:00am - - - - - SE 11 13 6 7 - - -
27/07:30am - - - - - SE 9 11 5 6 - - -
27/07:00am - - - - - SE 9 13 5 7 - - -
27/06:30am - - - - - SSE 9 11 5 6 - - -
27/06:00am - - - - - SE 11 13 6 7 - - -
27/05:30am - - - - - SE 13 15 7 8 - - -
27/05:00am - - - - - SE 13 13 7 7 - - -
27/04:30am - - - - - SE 13 15 7 8 - - -
27/04:00am - - - - - SE 9 11 5 6 - - -
27/03:30am - - - - - SE 9 11 5 6 - - -
27/03:00am - - - - - SE 9 11 5 6 - - -
27/02:30am - - - - - SE 11 13 6 7 - - -
27/02:00am - - - - - SE 9 11 5 6 - - -
27/01:30am - - - - - SE 11 11 6 6 - - -
27/01:00am - - - - - SE 11 13 6 7 - - -
27/12:30am - - - - - SE 11 11 6 6 - - -
27/12:00am - - - - - SE 11 13 6 7 - - -
 
Date/Time
WST
Temp
°C
App
Temp
°C
Dew
Point
Rel
Hum
%
Delta-T
°C
Wind Press
QNH
hPa
Press
MSL
hPa
Rain
since 9 am
mm
Dir
 
Spd
km/h
Gust
km/h
Spd
kts
Gust
kts
26/11:30pm - - - - - SSE 11 13 6 7 - - -
26/11:00pm - - - - - SE 13 15 7 8 - - -
26/10:30pm - - - - - SE 15 19 8 10 - - -
26/10:00pm - - - - - SE 15 17 8 9 - - -
26/09:30pm - - - - - SE 15 17 8 9 - - -
26/09:00pm - - - - - SE 15 15 8 8 - - -
26/08:30pm - - - - - SE 13 15 7 8 - - -
26/08:00pm - - - - - SE 13 15 7 8 - - -
26/07:30pm - - - - - SE 11 13 6 7 - - -
26/07:00pm - - - - - SE 9 11 5 6 - - -
26/06:30pm - - - - - ESE 9 9 5 5 - - -
26/06:00pm - - - - - ESE 11 13 6 7 - - -
26/05:30pm - - - - - E 11 11 6 6 - - -

Other Formats:

Comma delimited format used in spreadsheet applications
http://www.bom.gov.au/fwo/IDW60801/IDW60801.95602.axf

JavaScript Object Notation format (JSON) in row-major order
http://www.bom.gov.au/fwo/IDW60801/IDW60801.95602.json